sensor_id;sensor_type;location;lat;lon;timestamp;P1;durP1;ratioP1;P2;durP2;ratioP2
35795;SDS011;21916;52.428;13.302;2023-06-10T00:00:46;10.52;;;5.85;;
35795;SDS011;21916;52.428;13.302;2023-06-10T00:03:12;13.52;;;5.82;;
35795;SDS011;21916;52.428;13.302;2023-06-10T00:05:38;11.02;;;5.65;;
35795;SDS011;21916;52.428;13.302;2023-06-10T00:08:05;9.50;;;5.55;;
35795;SDS011;21916;52.428;13.302;2023-06-10T00:10:36;10.82;;;5.30;;
35795;SDS011;21916;52.428;13.302;2023-06-10T00:13:03;12.85;;;5.75;;
35795;SDS011;21916;52.428;13.302;2023-06-10T00:15:33;17.80;;;6.18;;
35795;SDS011;21916;52.428;13.302;2023-06-10T00:18:00;15.85;;;5.90;;
35795;SDS011;21916;52.428;13.302;2023-06-10T00:20:29;12.73;;;4.82;;
35795;SDS011;21916;52.428;13.302;2023-06-10T00:22:56;12.07;;;5.25;;
35795;SDS011;21916;52.428;13.302;2023-06-10T00:25:24;11.02;;;5.63;;
35795;SDS011;21916;52.428;13.302;2023-06-10T00:27:51;8.82;;;5.30;;
35795;SDS011;21916;52.428;13.302;2023-06-10T00:30:17;10.95;;;5.75;;
35795;SDS011;21916;52.428;13.302;2023-06-10T00:32:43;9.30;;;5.25;;
35795;SDS011;21916;52.428;13.302;2023-06-10T00:35:09;13.25;;;5.35;;
35795;SDS011;21916;52.428;13.302;2023-06-10T00:37:35;11.48;;;5.30;;
35795;SDS011;21916;52.428;13.302;2023-06-10T00:40:04;11.02;;;5.05;;
35795;SDS011;21916;52.428;13.302;2023-06-10T00:42:31;10.73;;;5.25;;
35795;SDS011;21916;52.428;13.302;2023-06-10T00:44:57;13.50;;;5.30;;
35795;SDS011;21916;52.428;13.302;2023-06-10T00:47:27;13.07;;;6.03;;
35795;SDS011;21916;52.428;13.302;2023-06-10T00:49:53;14.93;;;5.68;;
35795;SDS011;21916;52.428;13.302;2023-06-10T00:52:20;9.63;;;5.60;;
35795;SDS011;21916;52.428;13.302;2023-06-10T00:54:50;9.73;;;5.40;;
35795;SDS011;21916;52.428;13.302;2023-06-10T00:57:17;10.85;;;5.22;;
35795;SDS011;21916;52.428;13.302;2023-06-10T00:59:44;8.77;;;4.97;;
35795;SDS011;21916;52.428;13.302;2023-06-10T01:02:13;10.23;;;5.22;;
35795;SDS011;21916;52.428;13.302;2023-06-10T01:04:39;16.20;;;6.07;;
35795;SDS011;21916;52.428;13.302;2023-06-10T01:09:40;13.07;;;5.50;;
35795;SDS011;21916;52.428;13.302;2023-06-10T01:13:01;12.45;;;5.53;;
35795;SDS011;21916;52.428;13.302;2023-06-10T01:15:14;14.52;;;5.78;;
35795;SDS011;21916;52.428;13.302;2023-06-10T01:20:30;12.27;;;5.40;;
35795;SDS011;21916;52.428;13.302;2023-06-10T01:22:58;12.45;;;5.72;;
35795;SDS011;21916;52.428;13.302;2023-06-10T01:25:26;11.85;;;5.50;;
35795;SDS011;21916;52.428;13.302;2023-06-10T01:30:35;15.25;;;6.32;;
35795;SDS011;21916;52.428;13.302;2023-06-10T01:33:18;15.02;;;5.60;;
35795;SDS011;21916;52.428;13.302;2023-06-10T01:35:49;9.48;;;5.50;;
35795;SDS011;21916;52.428;13.302;2023-06-10T01:38:16;12.77;;;5.10;;
35795;SDS011;21916;52.428;13.302;2023-06-10T01:40:45;13.20;;;5.15;;
35795;SDS011;21916;52.428;13.302;2023-06-10T01:43:13;10.25;;;5.30;;
35795;SDS011;21916;52.428;13.302;2023-06-10T01:45:39;12.00;;;5.80;;
35795;SDS011;21916;52.428;13.302;2023-06-10T01:48:07;10.60;;;5.07;;
35795;SDS011;21916;52.428;13.302;2023-06-10T01:50:32;12.23;;;5.85;;
35795;SDS011;21916;52.428;13.302;2023-06-10T01:52:59;13.23;;;6.38;;
35795;SDS011;21916;52.428;13.302;2023-06-10T01:55:26;11.95;;;4.97;;
35795;SDS011;21916;52.428;13.302;2023-06-10T01:57:52;13.45;;;5.55;;
35795;SDS011;21916;52.428;13.302;2023-06-10T02:00:18;15.13;;;6.47;;
35795;SDS011;21916;52.428;13.302;2023-06-10T02:02:44;11.60;;;5.68;;
35795;SDS011;21916;52.428;13.302;2023-06-10T02:05:10;10.45;;;5.07;;
35795;SDS011;21916;52.428;13.302;2023-06-10T02:07:36;13.63;;;5.55;;
35795;SDS011;21916;52.428;13.302;2023-06-10T02:10:02;16.48;;;6.00;;
35795;SDS011;21916;52.428;13.302;2023-06-10T02:12:28;11.20;;;5.40;;
35795;SDS011;21916;52.428;13.302;2023-06-10T02:14:54;11.88;;;5.13;;
35795;SDS011;21916;52.428;13.302;2023-06-10T02:17:20;8.88;;;5.43;;
35795;SDS011;21916;52.428;13.302;2023-06-10T02:19:47;12.98;;;5.57;;
35795;SDS011;21916;52.428;13.302;2023-06-10T02:22:20;14.20;;;5.70;;
35795;SDS011;21916;52.428;13.302;2023-06-10T02:24:47;9.27;;;5.75;;
35795;SDS011;21916;52.428;13.302;2023-06-10T02:27:17;13.65;;;5.75;;
35795;SDS011;21916;52.428;13.302;2023-06-10T02:29:43;10.27;;;5.32;;
35795;SDS011;21916;52.428;13.302;2023-06-10T02:32:11;11.20;;;6.10;;
35795;SDS011;21916;52.428;13.302;2023-06-10T02:34:37;12.57;;;5.53;;
35795;SDS011;21916;52.428;13.302;2023-06-10T02:37:04;11.10;;;5.93;;
35795;SDS011;21916;52.428;13.302;2023-06-10T02:39:30;12.20;;;6.15;;
35795;SDS011;21916;52.428;13.302;2023-06-10T02:41:57;9.98;;;5.60;;
35795;SDS011;21916;52.428;13.302;2023-06-10T02:44:23;11.65;;;5.50;;
35795;SDS011;21916;52.428;13.302;2023-06-10T02:46:49;12.70;;;5.90;;
35795;SDS011;21916;52.428;13.302;2023-06-10T02:49:16;15.90;;;5.82;;
35795;SDS011;21916;52.428;13.302;2023-06-10T02:51:44;16.90;;;7.22;;
35795;SDS011;21916;52.428;13.302;2023-06-10T02:54:10;14.38;;;5.55;;
35795;SDS011;21916;52.428;13.302;2023-06-10T02:56:36;13.50;;;6.30;;
35795;SDS011;21916;52.428;13.302;2023-06-10T02:59:09;15.15;;;5.82;;
35795;SDS011;21916;52.428;13.302;2023-06-10T03:01:36;12.57;;;5.40;;
35795;SDS011;21916;52.428;13.302;2023-06-10T03:04:06;12.00;;;5.80;;
35795;SDS011;21916;52.428;13.302;2023-06-10T03:06:34;11.57;;;5.70;;
35795;SDS011;21916;52.428;13.302;2023-06-10T03:09:09;13.35;;;6.40;;
35795;SDS011;21916;52.428;13.302;2023-06-10T03:11:37;14.65;;;6.35;;
35795;SDS011;21916;52.428;13.302;2023-06-10T03:14:03;17.33;;;6.60;;
35795;SDS011;21916;52.428;13.302;2023-06-10T03:16:31;10.68;;;5.93;;
35795;SDS011;21916;52.428;13.302;2023-06-10T03:18:59;12.55;;;6.38;;
35795;SDS011;21916;52.428;13.302;2023-06-10T03:21:25;13.45;;;5.80;;
35795;SDS011;21916;52.428;13.302;2023-06-10T03:23:55;15.90;;;6.45;;
35795;SDS011;21916;52.428;13.302;2023-06-10T03:26:21;15.05;;;6.47;;
35795;SDS011;21916;52.428;13.302;2023-06-10T03:28:47;13.70;;;5.20;;
35795;SDS011;21916;52.428;13.302;2023-06-10T03:31:14;12.48;;;6.53;;
35795;SDS011;21916;52.428;13.302;2023-06-10T03:33:42;13.10;;;6.03;;
35795;SDS011;21916;52.428;13.302;2023-06-10T03:36:08;13.38;;;6.45;;
35795;SDS011;21916;52.428;13.302;2023-06-10T03:38:36;14.23;;;5.90;;
35795;SDS011;21916;52.428;13.302;2023-06-10T03:41:03;11.60;;;6.07;;
35795;SDS011;21916;52.428;13.302;2023-06-10T03:43:30;14.45;;;6.60;;
35795;SDS011;21916;52.428;13.302;2023-06-10T03:45:56;17.80;;;6.57;;
35795;SDS011;21916;52.428;13.302;2023-06-10T03:48:23;12.32;;;5.75;;
35795;SDS011;21916;52.428;13.302;2023-06-10T03:50:51;13.27;;;6.45;;
35795;SDS011;21916;52.428;13.302;2023-06-10T03:53:19;14.10;;;6.88;;
35795;SDS011;21916;52.428;13.302;2023-06-10T03:55:45;15.45;;;7.10;;
35795;SDS011;21916;52.428;13.302;2023-06-10T03:58:13;9.90;;;5.57;;
35795;SDS011;21916;52.428;13.302;2023-06-10T04:00:41;14.10;;;6.57;;
35795;SDS011;21916;52.428;13.302;2023-06-10T04:03:10;12.48;;;6.97;;
35795;SDS011;21916;52.428;13.302;2023-06-10T04:05:46;12.90;;;6.97;;
35795;SDS011;21916;52.428;13.302;2023-06-10T04:08:12;11.50;;;6.45;;
35795;SDS011;21916;52.428;13.302;2023-06-10T04:10:38;13.93;;;6.22;;
35795;SDS011;21916;52.428;13.302;2023-06-10T04:13:04;14.10;;;6.30;;
35795;SDS011;21916;52.428;13.302;2023-06-10T04:15:37;15.00;;;6.45;;
35795;SDS011;21916;52.428;13.302;2023-06-10T04:18:07;14.27;;;6.40;;
35795;SDS011;21916;52.428;13.302;2023-06-10T04:20:33;12.32;;;6.18;;
35795;SDS011;21916;52.428;13.302;2023-06-10T04:22:59;14.55;;;7.40;;
35795;SDS011;21916;52.428;13.302;2023-06-10T04:25:26;13.73;;;6.40;;
35795;SDS011;21916;52.428;13.302;2023-06-10T04:27:54;18.60;;;6.65;;
35795;SDS011;21916;52.428;13.302;2023-06-10T04:30:21;15.10;;;7.07;;
35795;SDS011;21916;52.428;13.302;2023-06-10T04:32:49;16.13;;;7.78;;
35795;SDS011;21916;52.428;13.302;2023-06-10T04:35:17;15.20;;;7.18;;
35795;SDS011;21916;52.428;13.302;2023-06-10T04:37:44;16.05;;;6.75;;
35795;SDS011;21916;52.428;13.302;2023-06-10T04:40:12;14.77;;;7.30;;
35795;SDS011;21916;52.428;13.302;2023-06-10T04:42:38;15.50;;;6.07;;
35795;SDS011;21916;52.428;13.302;2023-06-10T04:45:07;14.50;;;6.68;;
35795;SDS011;21916;52.428;13.302;2023-06-10T04:47:34;11.82;;;6.40;;
35795;SDS011;21916;52.428;13.302;2023-06-10T04:50:00;10.35;;;6.10;;
35795;SDS011;21916;52.428;13.302;2023-06-10T04:52:28;10.95;;;6.43;;
35795;SDS011;21916;52.428;13.302;2023-06-10T04:54:54;13.27;;;6.20;;
35795;SDS011;21916;52.428;13.302;2023-06-10T04:57:21;15.38;;;6.65;;
35795;SDS011;21916;52.428;13.302;2023-06-10T04:59:47;13.02;;;6.53;;
35795;SDS011;21916;52.428;13.302;2023-06-10T05:02:13;12.65;;;6.80;;
35795;SDS011;21916;52.428;13.302;2023-06-10T05:04:39;12.90;;;6.40;;
35795;SDS011;21916;52.428;13.302;2023-06-10T05:07:05;11.25;;;6.60;;
35795;SDS011;21916;52.428;13.302;2023-06-10T05:09:31;11.73;;;6.63;;
35795;SDS011;21916;52.428;13.302;2023-06-10T05:11:58;12.98;;;7.30;;
35795;SDS011;21916;52.428;13.302;2023-06-10T05:14:25;15.73;;;6.70;;
35795;SDS011;21916;52.428;13.302;2023-06-10T05:16:51;12.73;;;6.68;;
35795;SDS011;21916;52.428;13.302;2023-06-10T05:19:17;11.25;;;6.10;;
35795;SDS011;21916;52.428;13.302;2023-06-10T05:21:44;11.68;;;6.28;;
35795;SDS011;21916;52.428;13.302;2023-06-10T05:24:10;13.18;;;7.25;;
35795;SDS011;21916;52.428;13.302;2023-06-10T05:26:36;12.32;;;6.65;;
35795;SDS011;21916;52.428;13.302;2023-06-10T05:29:06;12.45;;;6.95;;
35795;SDS011;21916;52.428;13.302;2023-06-10T05:31:37;12.43;;;6.68;;
35795;SDS011;21916;52.428;13.302;2023-06-10T05:34:08;12.00;;;6.75;;
35795;SDS011;21916;52.428;13.302;2023-06-10T05:36:35;11.40;;;6.93;;
35795;SDS011;21916;52.428;13.302;2023-06-10T05:39:01;11.60;;;6.20;;
35795;SDS011;21916;52.428;13.302;2023-06-10T05:41:28;13.52;;;7.18;;
35795;SDS011;21916;52.428;13.302;2023-06-10T05:43:55;14.88;;;6.63;;
35795;SDS011;21916;52.428;13.302;2023-06-10T05:46:21;14.57;;;7.20;;
35795;SDS011;21916;52.428;13.302;2023-06-10T05:48:47;15.13;;;6.30;;
35795;SDS011;21916;52.428;13.302;2023-06-10T05:51:13;10.18;;;6.63;;
35795;SDS011;21916;52.428;13.302;2023-06-10T05:53:39;10.98;;;6.18;;
35795;SDS011;21916;52.428;13.302;2023-06-10T05:56:08;11.18;;;6.35;;
35795;SDS011;21916;52.428;13.302;2023-06-10T05:58:35;14.48;;;6.90;;
35795;SDS011;21916;52.428;13.302;2023-06-10T06:01:01;14.07;;;6.47;;
35795;SDS011;21916;52.428;13.302;2023-06-10T06:03:27;15.63;;;6.18;;
35795;SDS011;21916;52.428;13.302;2023-06-10T06:05:53;11.45;;;6.47;;
35795;SDS011;21916;52.428;13.302;2023-06-10T06:08:19;15.73;;;6.80;;
35795;SDS011;21916;52.428;13.302;2023-06-10T06:10:46;13.18;;;6.10;;
35795;SDS011;21916;52.428;13.302;2023-06-10T06:13:13;11.63;;;6.82;;
35795;SDS011;21916;52.428;13.302;2023-06-10T06:15:42;14.27;;;6.60;;
35795;SDS011;21916;52.428;13.302;2023-06-10T06:18:07;9.98;;;6.18;;
35795;SDS011;21916;52.428;13.302;2023-06-10T06:20:33;14.90;;;6.97;;
35795;SDS011;21916;52.428;13.302;2023-06-10T06:22:59;14.10;;;7.00;;
35795;SDS011;21916;52.428;13.302;2023-06-10T06:25:26;13.50;;;6.50;;
35795;SDS011;21916;52.428;13.302;2023-06-10T06:27:52;12.32;;;6.50;;
35795;SDS011;21916;52.428;13.302;2023-06-10T06:30:19;11.70;;;6.95;;
35795;SDS011;21916;52.428;13.302;2023-06-10T06:32:51;13.70;;;6.90;;
35795;SDS011;21916;52.428;13.302;2023-06-10T06:35:17;13.52;;;7.07;;
35795;SDS011;21916;52.428;13.302;2023-06-10T06:37:43;10.48;;;6.82;;
35795;SDS011;21916;52.428;13.302;2023-06-10T06:40:19;10.10;;;6.72;;
35795;SDS011;21916;52.428;13.302;2023-06-10T06:42:46;13.23;;;6.78;;
35795;SDS011;21916;52.428;13.302;2023-06-10T06:45:24;12.70;;;6.88;;
35795;SDS011;21916;52.428;13.302;2023-06-10T06:47:51;11.75;;;7.45;;
35795;SDS011;21916;52.428;13.302;2023-06-10T06:50:17;14.30;;;6.93;;
35795;SDS011;21916;52.428;13.302;2023-06-10T06:52:48;12.10;;;6.65;;
35795;SDS011;21916;52.428;13.302;2023-06-10T06:55:14;10.85;;;6.38;;
35795;SDS011;21916;52.428;13.302;2023-06-10T06:57:41;11.30;;;6.70;;
35795;SDS011;21916;52.428;13.302;2023-06-10T07:00:09;13.82;;;7.00;;
35795;SDS011;21916;52.428;13.302;2023-06-10T07:02:36;13.85;;;6.90;;
35795;SDS011;21916;52.428;13.302;2023-06-10T07:05:02;12.55;;;6.95;;
35795;SDS011;21916;52.428;13.302;2023-06-10T07:07:29;12.20;;;7.32;;
35795;SDS011;21916;52.428;13.302;2023-06-10T07:09:55;11.27;;;7.30;;
35795;SDS011;21916;52.428;13.302;2023-06-10T07:12:21;14.02;;;7.22;;
35795;SDS011;21916;52.428;13.302;2023-06-10T07:14:49;14.45;;;7.75;;
35795;SDS011;21916;52.428;13.302;2023-06-10T07:17:16;14.30;;;7.70;;
35795;SDS011;21916;52.428;13.302;2023-06-10T07:19:43;8.30;;;6.30;;
35795;SDS011;21916;52.428;13.302;2023-06-10T07:22:10;12.13;;;7.45;;
35795;SDS011;21916;52.428;13.302;2023-06-10T07:24:36;10.45;;;7.07;;
35795;SDS011;21916;52.428;13.302;2023-06-10T07:27:01;10.20;;;6.95;;
35795;SDS011;21916;52.428;13.302;2023-06-10T07:29:27;11.73;;;7.57;;
35795;SDS011;21916;52.428;13.302;2023-06-10T07:31:55;11.73;;;7.47;;
35795;SDS011;21916;52.428;13.302;2023-06-10T07:34:24;12.32;;;7.55;;
35795;SDS011;21916;52.428;13.302;2023-06-10T07:36:50;11.32;;;7.32;;
35795;SDS011;21916;52.428;13.302;2023-06-10T07:39:19;15.10;;;8.10;;
35795;SDS011;21916;52.428;13.302;2023-06-10T07:41:45;13.30;;;8.00;;
35795;SDS011;21916;52.428;13.302;2023-06-10T07:44:11;14.80;;;8.38;;
35795;SDS011;21916;52.428;13.302;2023-06-10T07:46:36;9.50;;;6.88;;
35795;SDS011;21916;52.428;13.302;2023-06-10T07:49:02;12.07;;;8.18;;
35795;SDS011;21916;52.428;13.302;2023-06-10T07:51:29;13.88;;;8.15;;
35795;SDS011;21916;52.428;13.302;2023-06-10T07:53:55;12.60;;;7.28;;
35795;SDS011;21916;52.428;13.302;2023-06-10T07:56:21;10.90;;;6.72;;
35795;SDS011;21916;52.428;13.302;2023-06-10T07:58:47;10.23;;;7.35;;
35795;SDS011;21916;52.428;13.302;2023-06-10T08:01:13;13.38;;;7.53;;
35795;SDS011;21916;52.428;13.302;2023-06-10T08:03:39;12.70;;;7.50;;
35795;SDS011;21916;52.428;13.302;2023-06-10T08:06:05;12.35;;;7.85;;
35795;SDS011;21916;52.428;13.302;2023-06-10T08:08:31;9.82;;;6.97;;
35795;SDS011;21916;52.428;13.302;2023-06-10T08:10:57;10.10;;;7.35;;
35795;SDS011;21916;52.428;13.302;2023-06-10T08:13:24;13.48;;;7.55;;
35795;SDS011;21916;52.428;13.302;2023-06-10T08:15:50;15.52;;;7.00;;
35795;SDS011;21916;52.428;13.302;2023-06-10T08:18:16;11.30;;;6.93;;
35795;SDS011;21916;52.428;13.302;2023-06-10T08:20:42;10.45;;;6.68;;
35795;SDS011;21916;52.428;13.302;2023-06-10T08:23:08;8.65;;;6.95;;
35795;SDS011;21916;52.428;13.302;2023-06-10T08:25:34;12.25;;;7.35;;
35795;SDS011;21916;52.428;13.302;2023-06-10T08:28:00;11.95;;;7.45;;
35795;SDS011;21916;52.428;13.302;2023-06-10T08:30:25;13.13;;;7.80;;
35795;SDS011;21916;52.428;13.302;2023-06-10T08:32:51;11.18;;;7.55;;
35795;SDS011;21916;52.428;13.302;2023-06-10T08:35:17;10.48;;;7.32;;
35795;SDS011;21916;52.428;13.302;2023-06-10T08:37:43;10.45;;;7.32;;
35795;SDS011;21916;52.428;13.302;2023-06-10T08:40:09;12.63;;;8.20;;
35795;SDS011;21916;52.428;13.302;2023-06-10T08:42:39;13.57;;;7.80;;
35795;SDS011;21916;52.428;13.302;2023-06-10T08:45:11;12.15;;;7.47;;
35795;SDS011;21916;52.428;13.302;2023-06-10T08:50:10;11.05;;;7.25;;
35795;SDS011;21916;52.428;13.302;2023-06-10T08:52:37;10.63;;;6.95;;
35795;SDS011;21916;52.428;13.302;2023-06-10T08:55:18;11.82;;;7.70;;
35795;SDS011;21916;52.428;13.302;2023-06-10T08:57:51;14.30;;;7.20;;
35795;SDS011;21916;52.428;13.302;2023-06-10T09:00:18;12.60;;;6.68;;
35795;SDS011;21916;52.428;13.302;2023-06-10T09:02:45;13.13;;;7.22;;
35795;SDS011;21916;52.428;13.302;2023-06-10T09:05:11;9.15;;;7.20;;
35795;SDS011;21916;52.428;13.302;2023-06-10T09:07:38;10.52;;;6.30;;
35795;SDS011;21916;52.428;13.302;2023-06-10T09:10:05;12.82;;;6.80;;
35795;SDS011;21916;52.428;13.302;2023-06-10T09:12:33;11.32;;;6.97;;
35795;SDS011;21916;52.428;13.302;2023-06-10T09:15:00;11.15;;;7.22;;
35795;SDS011;21916;52.428;13.302;2023-06-10T09:17:29;12.88;;;6.68;;
35795;SDS011;21916;52.428;13.302;2023-06-10T09:19:59;11.35;;;6.85;;
35795;SDS011;21916;52.428;13.302;2023-06-10T09:22:27;10.43;;;7.00;;
35795;SDS011;21916;52.428;13.302;2023-06-10T09:25:06;10.77;;;7.22;;
35795;SDS011;21916;52.428;13.302;2023-06-10T09:27:47;11.05;;;7.07;;
35795;SDS011;21916;52.428;13.302;2023-06-10T09:30:36;11.02;;;7.82;;
35795;SDS011;21916;52.428;13.302;2023-06-10T09:33:03;7.47;;;6.70;;
35795;SDS011;21916;52.428;13.302;2023-06-10T09:35:47;11.50;;;7.22;;
35795;SDS011;21916;52.428;13.302;2023-06-10T09:38:23;11.48;;;6.82;;
35795;SDS011;21916;52.428;13.302;2023-06-10T09:40:54;9.20;;;6.60;;
35795;SDS011;21916;52.428;13.302;2023-06-10T09:43:20;10.43;;;7.20;;
35795;SDS011;21916;52.428;13.302;2023-06-10T09:45:47;8.48;;;6.40;;
35795;SDS011;21916;52.428;13.302;2023-06-10T09:48:14;8.48;;;6.72;;
35795;SDS011;21916;52.428;13.302;2023-06-10T09:50:45;9.20;;;6.05;;
35795;SDS011;21916;52.428;13.302;2023-06-10T09:53:11;13.63;;;7.10;;
35795;SDS011;21916;52.428;13.302;2023-06-10T09:55:38;9.45;;;5.82;;
35795;SDS011;21916;52.428;13.302;2023-06-10T09:58:04;13.32;;;6.65;;
35795;SDS011;21916;52.428;13.302;2023-06-10T10:00:34;9.23;;;6.22;;
35795;SDS011;21916;52.428;13.302;2023-06-10T10:03:00;9.75;;;6.97;;
35795;SDS011;21916;52.428;13.302;2023-06-10T10:05:27;10.13;;;6.50;;
35795;SDS011;21916;52.428;13.302;2023-06-10T10:07:53;8.00;;;6.72;;
35795;SDS011;21916;52.428;13.302;2023-06-10T10:10:21;11.10;;;7.00;;
35795;SDS011;21916;52.428;13.302;2023-06-10T10:12:48;7.63;;;6.60;;
35795;SDS011;21916;52.428;13.302;2023-06-10T10:15:21;9.27;;;6.15;;
35795;SDS011;21916;52.428;13.302;2023-06-10T10:17:51;11.25;;;5.97;;
35795;SDS011;21916;52.428;13.302;2023-06-10T10:20:20;13.75;;;6.65;;
35795;SDS011;21916;52.428;13.302;2023-06-10T10:22:50;13.98;;;6.30;;
35795;SDS011;21916;52.428;13.302;2023-06-10T10:25:27;8.63;;;5.78;;
35795;SDS011;21916;52.428;13.302;2023-06-10T10:27:59;8.48;;;5.88;;
35795;SDS011;21916;52.428;13.302;2023-06-10T10:30:34;10.35;;;6.13;;
35795;SDS011;21916;52.428;13.302;2023-06-10T10:33:09;9.13;;;5.47;;
35795;SDS011;21916;52.428;13.302;2023-06-10T10:35:41;7.95;;;6.00;;
35795;SDS011;21916;52.428;13.302;2023-06-10T10:38:08;10.43;;;6.88;;
35795;SDS011;21916;52.428;13.302;2023-06-10T10:40:34;9.48;;;5.40;;
35795;SDS011;21916;52.428;13.302;2023-06-10T10:43:01;9.60;;;6.13;;
35795;SDS011;21916;52.428;13.302;2023-06-10T10:45:28;9.35;;;6.30;;
35795;SDS011;21916;52.428;13.302;2023-06-10T10:47:54;10.35;;;5.68;;
35795;SDS011;21916;52.428;13.302;2023-06-10T10:50:22;8.80;;;6.10;;
35795;SDS011;21916;52.428;13.302;2023-06-10T10:52:59;9.15;;;6.75;;
35795;SDS011;21916;52.428;13.302;2023-06-10T10:55:29;7.30;;;5.35;;
35795;SDS011;21916;52.428;13.302;2023-06-10T10:57:58;6.97;;;5.72;;
35795;SDS011;21916;52.428;13.302;2023-06-10T11:00:35;8.80;;;5.20;;
35795;SDS011;21916;52.428;13.302;2023-06-10T11:03:08;8.02;;;4.45;;
35795;SDS011;21916;52.428;13.302;2023-06-10T11:05:43;6.35;;;3.65;;
35795;SDS011;21916;52.428;13.302;2023-06-10T11:10:58;9.93;;;3.70;;
35795;SDS011;21916;52.428;13.302;2023-06-10T11:13:25;4.65;;;3.60;;
35795;SDS011;21916;52.428;13.302;2023-06-10T11:15:52;9.05;;;3.28;;
35795;SDS011;21916;52.428;13.302;2023-06-10T11:18:28;5.30;;;3.67;;
35795;SDS011;21916;52.428;13.302;2023-06-10T11:21:01;4.30;;;3.90;;
35795;SDS011;21916;52.428;13.302;2023-06-10T11:23:34;4.60;;;4.20;;
35795;SDS011;21916;52.428;13.302;2023-06-10T11:28:39;6.43;;;4.63;;
35795;SDS011;21916;52.428;13.302;2023-06-10T11:31:06;5.40;;;4.53;;
35795;SDS011;21916;52.428;13.302;2023-06-10T11:33:32;9.55;;;4.85;;
35795;SDS011;21916;52.428;13.302;2023-06-10T11:35:58;4.53;;;4.10;;
35795;SDS011;21916;52.428;13.302;2023-06-10T11:38:24;7.03;;;4.95;;
35795;SDS011;21916;52.428;13.302;2023-06-10T11:40:51;6.65;;;5.45;;
35795;SDS011;21916;52.428;13.302;2023-06-10T11:43:18;7.00;;;4.63;;
35795;SDS011;21916;52.428;13.302;2023-06-10T11:45:44;5.53;;;5.00;;
35795;SDS011;21916;52.428;13.302;2023-06-10T11:48:11;4.95;;;4.47;;
35795;SDS011;21916;52.428;13.302;2023-06-10T11:50:38;7.50;;;4.75;;
35795;SDS011;21916;52.428;13.302;2023-06-10T11:53:04;8.05;;;4.88;;
35795;SDS011;21916;52.428;13.302;2023-06-10T11:55:41;7.93;;;4.78;;
35795;SDS011;21916;52.428;13.302;2023-06-10T11:58:15;10.00;;;5.35;;
35795;SDS011;21916;52.428;13.302;2023-06-10T12:03:12;5.50;;;5.00;;
35795;SDS011;21916;52.428;13.302;2023-06-10T12:05:38;5.97;;;4.75;;
35795;SDS011;21916;52.428;13.302;2023-06-10T12:08:10;5.60;;;4.38;;
35795;SDS011;21916;52.428;13.302;2023-06-10T12:10:40;10.05;;;4.97;;
35795;SDS011;21916;52.428;13.302;2023-06-10T12:13:08;5.78;;;4.85;;
35795;SDS011;21916;52.428;13.302;2023-06-10T12:15:35;5.05;;;4.55;;
35795;SDS011;21916;52.428;13.302;2023-06-10T12:18:02;6.20;;;4.80;;
35795;SDS011;21916;52.428;13.302;2023-06-10T12:20:31;8.35;;;5.30;;
35795;SDS011;21916;52.428;13.302;2023-06-10T12:23:07;10.15;;;4.88;;
35795;SDS011;21916;52.428;13.302;2023-06-10T12:25:34;7.10;;;5.00;;
35795;SDS011;21916;52.428;13.302;2023-06-10T12:28:02;5.55;;;4.85;;
35795;SDS011;21916;52.428;13.302;2023-06-10T12:30:28;8.00;;;4.53;;
35795;SDS011;21916;52.428;13.302;2023-06-10T12:32:55;8.60;;;4.70;;
35795;SDS011;21916;52.428;13.302;2023-06-10T12:35:21;6.47;;;4.20;;
35795;SDS011;21916;52.428;13.302;2023-06-10T12:40:30;6.50;;;4.25;;
35795;SDS011;21916;52.428;13.302;2023-06-10T12:43:00;5.60;;;4.63;;
35795;SDS011;21916;52.428;13.302;2023-06-10T12:45:30;5.65;;;4.40;;
35795;SDS011;21916;52.428;13.302;2023-06-10T12:50:53;5.13;;;4.07;;
35795;SDS011;21916;52.428;13.302;2023-06-10T12:53:21;7.18;;;5.03;;
35795;SDS011;21916;52.428;13.302;2023-06-10T12:55:52;6.63;;;4.18;;
35795;SDS011;21916;52.428;13.302;2023-06-10T12:58:21;6.20;;;4.65;;
35795;SDS011;21916;52.428;13.302;2023-06-10T13:00:48;7.40;;;4.43;;
35795;SDS011;21916;52.428;13.302;2023-06-10T13:03:18;6.00;;;5.30;;
35795;SDS011;21916;52.428;13.302;2023-06-10T13:05:44;10.10;;;5.22;;
35795;SDS011;21916;52.428;13.302;2023-06-10T13:08:10;6.43;;;5.45;;
35795;SDS011;21916;52.428;13.302;2023-06-10T13:10:36;7.75;;;5.60;;
35795;SDS011;21916;52.428;13.302;2023-06-10T13:13:02;6.97;;;5.53;;
35795;SDS011;21916;52.428;13.302;2023-06-10T13:15:34;5.55;;;5.05;;
35795;SDS011;21916;52.428;13.302;2023-06-10T13:18:03;6.72;;;5.80;;
35795;SDS011;21916;52.428;13.302;2023-06-10T13:20:30;8.95;;;6.05;;
35795;SDS011;21916;52.428;13.302;2023-06-10T13:22:56;6.07;;;5.00;;
35795;SDS011;21916;52.428;13.302;2023-06-10T13:25:22;6.15;;;5.55;;
35795;SDS011;21916;52.428;13.302;2023-06-10T13:27:48;5.53;;;5.00;;
35795;SDS011;21916;52.428;13.302;2023-06-10T13:30:14;8.50;;;5.68;;
35795;SDS011;21916;52.428;13.302;2023-06-10T13:32:40;9.07;;;5.28;;
35795;SDS011;21916;52.428;13.302;2023-06-10T13:35:07;6.93;;;5.15;;
35795;SDS011;21916;52.428;13.302;2023-06-10T13:37:34;6.95;;;5.88;;
35795;SDS011;21916;52.428;13.302;2023-06-10T13:40:00;6.20;;;5.53;;
35795;SDS011;21916;52.428;13.302;2023-06-10T13:42:28;8.80;;;5.13;;
35795;SDS011;21916;52.428;13.302;2023-06-10T13:44:56;8.52;;;5.70;;
35795;SDS011;21916;52.428;13.302;2023-06-10T13:47:22;8.93;;;5.82;;
35795;SDS011;21916;52.428;13.302;2023-06-10T13:49:47;9.32;;;5.47;;
35795;SDS011;21916;52.428;13.302;2023-06-10T13:52:13;9.48;;;5.82;;
35795;SDS011;21916;52.428;13.302;2023-06-10T13:54:39;6.05;;;5.47;;
35795;SDS011;21916;52.428;13.302;2023-06-10T13:57:05;6.47;;;5.88;;
35795;SDS011;21916;52.428;13.302;2023-06-10T13:59:31;6.72;;;5.47;;
35795;SDS011;21916;52.428;13.302;2023-06-10T14:01:57;8.25;;;5.72;;
35795;SDS011;21916;52.428;13.302;2023-06-10T14:04:24;6.38;;;5.03;;
35795;SDS011;21916;52.428;13.302;2023-06-10T14:06:50;8.85;;;5.20;;
35795;SDS011;21916;52.428;13.302;2023-06-10T14:09:16;9.45;;;5.78;;
35795;SDS011;21916;52.428;13.302;2023-06-10T14:11:42;6.35;;;5.55;;
35795;SDS011;21916;52.428;13.302;2023-06-10T14:14:09;7.25;;;5.88;;
35795;SDS011;21916;52.428;13.302;2023-06-10T14:16:35;7.07;;;5.78;;
35795;SDS011;21916;52.428;13.302;2023-06-10T14:19:01;8.77;;;5.95;;
35795;SDS011;21916;52.428;13.302;2023-06-10T14:21:27;12.02;;;6.40;;
35795;SDS011;21916;52.428;13.302;2023-06-10T14:23:53;8.40;;;5.75;;
35795;SDS011;21916;52.428;13.302;2023-06-10T14:26:19;8.82;;;5.65;;
35795;SDS011;21916;52.428;13.302;2023-06-10T14:28:47;6.88;;;5.80;;
35795;SDS011;21916;52.428;13.302;2023-06-10T14:31:16;10.07;;;6.05;;
35795;SDS011;21916;52.428;13.302;2023-06-10T14:33:43;8.23;;;5.75;;
35795;SDS011;21916;52.428;13.302;2023-06-10T14:36:10;6.40;;;5.00;;
35795;SDS011;21916;52.428;13.302;2023-06-10T14:38:37;5.28;;;4.70;;
35795;SDS011;21916;52.428;13.302;2023-06-10T14:41:03;9.10;;;5.13;;
35795;SDS011;21916;52.428;13.302;2023-06-10T14:43:29;6.57;;;5.13;;
35795;SDS011;21916;52.428;13.302;2023-06-10T14:45:55;12.00;;;5.82;;
35795;SDS011;21916;52.428;13.302;2023-06-10T14:48:23;5.00;;;4.45;;
35795;SDS011;21916;52.428;13.302;2023-06-10T14:50:48;7.45;;;4.43;;
35795;SDS011;21916;52.428;13.302;2023-06-10T14:53:17;9.75;;;4.68;;